Time;durP1;ratioP1;P1;durP2;ratioP2;P2;SDS_P1;SDS_P2;PMS_P1;PMS_P2;Temp;Humidity;BMP_temperature;BMP_pressure;BME280_temperature;BME280_humidity;BME280_pressure;Samples;Min_cycle;Max_cycle;Signal;HPM_P1;HPM_P2
2022/02/25 00:01:45;;;;;;;0.50;0.50;;;;;;;2.02;97.44;98664.00;5066857;28;20037;-66
2022/02/25 00:04:10;;;;;;;0.40;0.40;;;;;;;2.01;97.30;98677.66;5066616;28;20032;-66
2022/02/25 00:06:35;;;;;;;0.40;0.40;;;;;;;1.99;97.05;98679.34;5066982;28;20025;-67
2022/02/25 00:09:01;;;;;;;0.40;0.40;;;;;;;1.94;97.13;98681.94;5066890;28;20021;-67
2022/02/25 00:11:26;;;;;;;0.40;0.40;;;;;;;1.97;97.20;98673.38;5066855;28;20029;-67
2022/02/25 00:13:51;;;;;;;0.40;0.40;;;;;;;1.97;97.10;98675.94;5066627;28;20043;-65
2022/02/25 00:16:17;;;;;;;0.40;0.40;;;;;;;1.96;97.14;98680.22;5066616;28;20082;-66
2022/02/25 00:18:42;;;;;;;0.40;0.40;;;;;;;1.95;97.24;98686.19;5066576;28;20025;-66
2022/02/25 00:21:07;;;;;;;0.50;0.50;;;;;;;1.95;97.10;98683.63;5066455;28;20465;-66
2022/02/25 00:23:33;;;;;;;0.40;0.40;;;;;;;1.90;97.28;98684.50;5066434;28;20079;-65
2022/02/25 00:25:58;;;;;;;0.40;0.40;;;;;;;1.92;97.17;98687.88;5066617;28;20439;-65
2022/02/25 00:28:24;;;;;;;0.45;0.45;;;;;;;1.94;97.28;98694.72;5066372;28;20033;-65
2022/02/25 00:30:49;;;;;;;0.50;0.50;;;;;;;1.95;97.40;98698.97;5066483;28;20032;-65
2022/02/25 00:33:16;;;;;;;0.40;0.40;;;;;;;1.96;97.26;98707.53;5066150;28;20079;-65
2022/02/25 00:35:42;;;;;;;0.40;0.40;;;;;;;1.94;97.21;98701.53;5066310;28;20456;-65
2022/02/25 00:38:08;;;;;;;0.40;0.40;;;;;;;1.95;97.28;98705.81;5066511;28;20052;-65
2022/02/25 00:40:33;;;;;;;0.40;0.40;;;;;;;1.94;97.35;98710.09;5067033;28;20025;-65
2022/02/25 00:42:59;;;;;;;0.40;0.40;;;;;;;1.90;97.19;98705.81;5066349;28;20061;-64
2022/02/25 00:45:24;;;;;;;0.40;0.40;;;;;;;1.92;97.24;98708.34;5066171;28;20021;-63
2022/02/25 00:47:50;;;;;;;0.50;0.50;;;;;;;1.91;97.31;98710.09;5066397;28;20569;-65
2022/02/25 00:50:15;;;;;;;0.40;0.40;;;;;;;1.93;97.46;98716.03;5066171;28;20029;-64
2022/02/25 00:52:41;;;;;;;0.40;0.40;;;;;;;1.96;97.24;98710.94;5066517;28;20071;-64
2022/02/25 00:55:07;;;;;;;0.40;0.40;;;;;;;2.00;97.46;98711.78;5066026;28;20115;-64
2022/02/25 00:57:32;;;;;;;0.40;0.40;;;;;;;2.06;97.54;98721.16;5065522;28;20230;-64
2022/02/25 00:59:58;;;;;;;0.30;0.30;;;;;;;2.09;97.44;98721.16;5066202;28;20222;-64
2022/02/25 01:02:23;;;;;;;0.40;0.40;;;;;;;2.08;97.50;98717.75;5065607;28;20017;-64
2022/02/25 01:04:48;;;;;;;0.40;0.40;;;;;;;2.08;97.30;98722.88;5065404;28;20025;-66
2022/02/25 01:07:14;;;;;;;0.40;0.40;;;;;;;2.06;97.38;98728.84;5065467;28;20055;-65
2022/02/25 01:09:39;;;;;;;0.40;0.40;;;;;;;2.03;97.19;98728.84;5065522;28;20032;-65
2022/02/25 01:12:06;;;;;;;0.30;0.30;;;;;;;1.96;97.25;98723.75;5065452;28;20021;-64
2022/02/25 01:14:31;;;;;;;0.47;0.47;;;;;;;1.97;97.19;98729.69;5065486;28;20032;-65
2022/02/25 01:16:56;;;;;;;0.40;0.40;;;;;;;1.95;97.23;98728.88;5065218;28;20028;-66
2022/02/25 01:19:22;;;;;;;0.40;0.40;;;;;;;1.91;97.40;98717.75;5064915;28;20032;-66
2022/02/25 01:21:47;;;;;;;0.30;0.30;;;;;;;1.90;97.33;98731.41;5065405;28;20029;-66
2022/02/25 01:24:13;;;;;;;0.40;0.40;;;;;;;1.87;97.35;98739.06;5065224;28;20028;-66
2022/02/25 01:26:38;;;;;;;0.50;0.50;;;;;;;1.83;97.15;98732.25;5065381;28;20051;-65
2022/02/25 01:29:04;;;;;;;0.40;0.40;;;;;;;1.83;97.26;98737.38;5065259;28;20189;-66
2022/02/25 01:31:29;;;;;;;0.50;0.50;;;;;;;1.82;97.08;98738.25;5065108;28;20089;-67
2022/02/25 01:33:55;;;;;;;0.40;0.40;;;;;;;1.79;97.23;98739.06;5065049;28;20025;-66
2022/02/25 01:36:20;;;;;;;0.40;0.40;;;;;;;1.77;97.16;98734.81;5064497;28;20036;-66
2022/02/25 01:38:46;;;;;;;0.30;0.30;;;;;;;1.76;97.16;98743.38;5064111;28;20029;-67
2022/02/25 01:41:11;;;;;;;0.40;0.40;;;;;;;1.74;97.19;98745.91;5063931;28;20111;-67
2022/02/25 01:43:36;;;;;;;0.50;0.50;;;;;;;1.72;97.27;98745.91;5063954;28;20477;-67
2022/02/25 01:46:02;;;;;;;0.40;0.40;;;;;;;1.70;97.20;98742.50;5063917;28;20053;-66
2022/02/25 01:48:27;;;;;;;0.47;0.47;;;;;;;1.66;97.13;98740.75;5063676;28;20032;-67
2022/02/25 01:50:53;;;;;;;0.45;0.45;;;;;;;1.66;97.09;98743.31;5063913;28;20036;-68
2022/02/25 01:53:20;;;;;;;0.40;0.40;;;;;;;1.64;97.20;98742.50;5063914;28;20103;-67
2022/02/25 01:55:47;;;;;;;0.40;0.40;;;;;;;1.64;97.20;98750.16;5063890;28;20052;-67
2022/02/25 01:58:13;;;;;;;0.30;0.30;;;;;;;1.65;97.16;98751.00;5045521;28;20044;-67
2022/02/25 02:00:38;;;;;;;0.40;0.40;;;;;;;1.65;97.27;98744.19;5063636;28;20025;-67
2022/02/25 02:03:05;;;;;;;0.43;0.43;;;;;;;1.62;97.27;98736.50;5063660;28;20028;-68
2022/02/25 02:05:30;;;;;;;0.40;0.40;;;;;;;1.68;97.31;98741.63;5063417;28;20025;-68
2022/02/25 02:07:55;;;;;;;0.40;0.40;;;;;;;1.69;97.11;98747.63;5063776;28;20032;-68
2022/02/25 02:10:21;;;;;;;0.40;0.40;;;;;;;1.67;97.17;98747.63;5063583;28;20024;-68
2022/02/25 02:12:46;;;;;;;0.40;0.40;;;;;;;1.67;97.15;98744.19;5063430;28;20032;-68
2022/02/25 02:15:12;;;;;;;0.40;0.40;;;;;;;1.66;97.20;98750.16;5063267;28;20024;-69
2022/02/25 02:17:37;;;;;;;0.40;0.40;;;;;;;1.59;97.25;98741.63;5044559;28;20029;-68
2022/02/25 02:20:04;;;;;;;0.43;0.43;;;;;;;1.59;97.25;98746.75;5063067;28;20027;-68
2022/02/25 02:22:29;;;;;;;0.43;0.43;;;;;;;1.58;97.18;98745.03;5063494;28;20032;-68
2022/02/25 02:24:56;;;;;;;0.40;0.40;;;;;;;1.53;97.12;98742.47;5063240;28;20021;-68
2022/02/25 02:27:21;;;;;;;0.40;0.40;;;;;;;1.54;97.03;98758.66;5063147;28;20029;-68
2022/02/25 02:29:47;;;;;;;0.40;0.40;;;;;;;1.47;97.04;98750.97;5063338;28;20027;-67
2022/02/25 02:32:13;;;;;;;0.40;0.40;;;;;;;1.51;97.14;98750.97;5063037;28;20021;-68
2022/02/25 02:34:39;;;;;;;0.50;0.50;;;;;;;1.52;97.12;98753.53;5062774;28;20033;-68
2022/02/25 02:37:07;;;;;;;0.50;0.50;;;;;;;1.55;97.19;98752.72;5024128;28;1131347;-68
2022/02/25 02:39:33;;;;;;;0.30;0.30;;;;;;;1.60;97.26;98751.84;5063815;28;20052;-69
2022/02/25 02:41:59;;;;;;;0.32;0.32;;;;;;;1.67;97.13;98755.28;5063700;28;20021;-71
2022/02/25 02:44:24;;;;;;;0.40;0.40;;;;;;;1.70;97.30;98750.16;5063570;28;20036;-71
2022/02/25 02:46:49;;;;;;;0.50;0.50;;;;;;;1.73;97.77;98762.09;5063703;28;20025;-71
2022/02/25 02:49:15;;;;;;;0.40;0.40;;;;;;;1.77;97.39;98765.53;5063317;28;20029;-72
2022/02/25 02:51:40;;;;;;;0.40;0.40;;;;;;;1.77;97.45;98766.38;5063686;28;20431;-72
2022/02/25 02:54:06;;;;;;;0.50;0.50;;;;;;;1.76;97.31;98762.09;5063554;28;20086;-73
2022/02/25 02:56:31;;;;;;;0.47;0.47;;;;;;;1.72;97.33;98756.16;5063669;28;20029;-73
2022/02/25 02:58:56;;;;;;;0.43;0.43;;;;;;;1.79;97.20;98766.38;5063582;28;20023;-72
2022/02/25 03:01:24;;;;;;;0.40;0.40;;;;;;;1.78;97.26;98768.09;5063611;28;20108;-73
2022/02/25 03:03:49;;;;;;;0.40;0.40;;;;;;;1.80;97.45;98773.19;5063110;28;20039;-72
2022/02/25 03:06:14;;;;;;;0.40;0.40;;;;;;;1.73;97.45;98756.97;5063505;28;20108;-71
2022/02/25 03:08:40;;;;;;;0.50;0.50;;;;;;;1.89;97.29;98774.91;5063269;28;20021;-70
2022/02/25 03:11:05;;;;;;;0.50;0.50;;;;;;;1.93;97.43;98766.41;5063393;28;20097;-70
2022/02/25 03:13:30;;;;;;;0.50;0.50;;;;;;;1.98;97.52;98778.31;5062628;28;20025;-70
2022/02/25 03:15:56;;;;;;;0.50;0.50;;;;;;;2.01;97.51;98768.94;5063309;28;20040;-70
2022/02/25 03:18:21;;;;;;;0.40;0.40;;;;;;;1.96;97.56;98761.28;5062969;28;20045;-70
2022/02/25 03:20:46;;;;;;;0.40;0.40;;;;;;;1.98;97.61;98765.53;5063172;28;20056;-71
2022/02/25 03:23:12;;;;;;;0.40;0.40;;;;;;;1.99;97.62;98766.38;5063215;28;20076;-72
2022/02/25 03:25:39;;;;;;;0.50;0.50;;;;;;;2.06;97.64;98777.50;5063191;28;20071;-72
2022/02/25 03:28:04;;;;;;;0.40;0.40;;;;;;;2.09;97.51;98774.94;5063371;28;20085;-73
2022/02/25 03:30:30;;;;;;;0.40;0.40;;;;;;;2.13;97.72;98779.19;5062314;28;20016;-74
2022/02/25 03:32:56;;;;;;;0.47;0.47;;;;;;;2.10;97.55;98777.50;5063241;28;20040;-73
2022/02/25 03:35:22;;;;;;;0.40;0.40;;;;;;;2.19;97.62;98780.91;5044630;28;20099;-73
2022/02/25 03:37:48;;;;;;;0.40;0.40;;;;;;;2.26;97.59;98789.41;5045008;28;20032;-75
2022/02/25 03:40:14;;;;;;;0.40;0.40;;;;;;;2.27;97.66;98791.97;5063075;28;20051;-75
2022/02/25 03:42:40;;;;;;;0.32;0.32;;;;;;;2.32;97.53;98795.41;5063365;28;20036;-76
2022/02/25 03:45:07;;;;;;;0.40;0.40;;;;;;;2.23;97.38;98778.34;5063161;28;20021;-75
2022/02/25 03:47:33;;;;;;;0.40;0.40;;;;;;;2.31;97.53;98792.84;5063006;28;20047;-75
2022/02/25 03:49:59;;;;;;;0.40;0.40;;;;;;;2.25;97.39;98797.97;5062600;28;20481;-76
2022/02/25 03:52:25;;;;;;;0.50;0.50;;;;;;;2.21;97.26;98804.78;5062786;28;20021;-77
2022/02/25 03:54:50;;;;;;;0.50;0.50;;;;;;;2.12;97.38;98795.41;5062830;28;20050;-74
2022/02/25 03:57:15;;;;;;;0.40;0.40;;;;;;;2.15;97.18;98810.78;5062945;28;20024;-75
2022/02/25 03:59:41;;;;;;;0.50;0.50;;;;;;;2.15;97.33;98808.22;5062922;28;20505;-75
2022/02/25 04:02:06;;;;;;;0.40;0.40;;;;;;;2.02;97.03;98794.53;5063158;28;20052;-76
2022/02/25 04:04:31;;;;;;;0.40;0.40;;;;;;;2.00;97.46;98797.97;5044814;28;20017;-76
2022/02/25 04:06:57;;;;;;;0.40;0.40;;;;;;;2.02;97.33;98806.47;5044988;28;20500;-76
2022/02/25 04:09:22;;;;;;;0.40;0.40;;;;;;;2.04;97.13;98815.03;5062934;28;20029;-76
2022/02/25 04:11:50;;;;;;;0.40;0.40;;;;;;;1.99;97.17;98809.91;5062841;28;20104;-75
2022/02/25 04:14:18;;;;;;;0.50;0.50;;;;;;;1.96;97.14;98813.34;5062594;28;20052;-75
2022/02/25 04:16:45;;;;;;;0.40;0.40;;;;;;;1.89;97.21;98808.19;5062878;28;20045;-75
2022/02/25 04:19:10;;;;;;;0.40;0.40;;;;;;;1.87;97.18;98803.06;5062477;28;20052;-74
2022/02/25 04:21:36;;;;;;;0.35;0.35;;;;;;;1.91;97.01;98820.13;5062563;28;20044;-74
2022/02/25 04:24:01;;;;;;;0.43;0.43;;;;;;;1.91;97.16;98815.03;5062512;28;20020;-75
2022/02/25 04:26:27;;;;;;;0.40;0.40;;;;;;;1.86;97.32;98811.59;5062580;28;20077;-74
2022/02/25 04:28:52;;;;;;;0.40;0.40;;;;;;;1.92;97.39;98821.84;5044618;28;20043;-74
2022/02/25 04:31:18;;;;;;;0.35;0.35;;;;;;;1.89;97.21;98814.16;5062820;28;20352;-75
2022/02/25 04:33:44;;;;;;;0.40;0.40;;;;;;;1.95;97.23;98823.56;5062147;28;20028;-74
2022/02/25 04:36:09;;;;;;;0.40;0.40;;;;;;;1.97;97.12;98824.41;5062346;28;20496;-75
2022/02/25 04:38:35;;;;;;;0.40;0.40;;;;;;;1.96;97.22;98815.88;5062504;28;20088;-75
2022/02/25 04:41:01;;;;;;;0.40;0.40;;;;;;;1.98;97.24;98821.84;5063362;28;20040;-74
2022/02/25 04:43:31;;;;;;;0.40;0.40;;;;;;;2.05;97.47;98832.09;5047884;28;20060;-74
2022/02/25 04:45:57;;;;;;;0.40;0.40;;;;;;;2.04;97.29;98822.72;5066067;28;20029;-75
2022/02/25 04:48:24;;;;;;;0.40;0.40;;;;;;;2.05;97.43;98826.97;5066018;28;20025;-75
2022/02/25 04:50:50;;;;;;;0.40;0.40;;;;;;;2.02;97.19;98832.09;5065992;28;20033;-75
2022/02/25 04:53:15;;;;;;;0.47;0.47;;;;;;;1.98;97.12;98834.63;5065968;28;20077;-73
2022/02/25 04:55:41;;;;;;;0.50;0.50;;;;;;;1.94;97.04;98837.19;5065667;28;20029;-75
2022/02/25 04:58:06;;;;;;;0.40;0.40;;;;;;;1.82;97.15;98822.69;5065965;28;20074;-73
2022/02/25 05:00:32;;;;;;;0.50;0.50;;;;;;;1.87;97.11;98827.81;5065897;28;20012;-73
2022/02/25 05:02:58;;;;;;;0.40;0.40;;;;;;;1.85;97.19;98825.25;5065649;28;20028;-74
2022/02/25 05:05:23;;;;;;;0.45;0.45;;;;;;;1.80;97.17;98825.25;5065293;28;20025;-74
2022/02/25 05:07:48;;;;;;;0.40;0.40;;;;;;;1.86;97.38;98829.50;5065607;28;20012;-74
2022/02/25 05:10:14;;;;;;;0.40;0.40;;;;;;;1.85;97.27;98832.94;5065507;28;20044;-74
2022/02/25 05:12:40;;;;;;;0.40;0.40;;;;;;;1.85;97.21;98832.94;5047374;28;20029;-73
2022/02/25 05:20:34;;;;;;;0.47;0.47;;;;;;;1.84;97.32;98849.13;5064945;28;20268;-73
2022/02/25 05:23:02;;;;;;;0.40;0.40;;;;;;;1.81;97.22;98844.84;5065492;28;20096;-74
2022/02/25 05:25:30;;;;;;;0.30;0.30;;;;;;;1.86;97.31;98849.97;5065200;28;20025;-74
2022/02/25 05:27:58;;;;;;;0.50;0.50;;;;;;;1.86;97.27;98855.09;5065142;28;20017;-74
2022/02/25 05:30:25;;;;;;;0.40;0.40;;;;;;;1.90;97.52;98856.81;5065376;28;20193;-74
2022/02/25 05:32:50;;;;;;;0.40;0.40;;;;;;;1.94;97.57;98855.97;5065245;28;20036;-74
2022/02/25 05:35:17;;;;;;;0.50;0.50;;;;;;;1.94;97.45;98857.66;5046557;28;20116;-76
2022/02/25 05:37:44;;;;;;;0.43;0.43;;;;;;;2.00;97.42;98867.09;5065369;28;20025;-74
2022/02/25 05:40:12;;;;;;;0.40;0.40;;;;;;;2.02;97.46;98858.53;5065249;28;20028;-70
2022/02/25 05:42:38;;;;;;;0.50;0.50;;;;;;;2.02;97.48;98857.69;5064923;28;20056;-73
2022/02/25 05:45:04;;;;;;;0.47;0.47;;;;;;;2.10;97.46;98861.13;5065008;28;20025;-73
2022/02/25 05:47:30;;;;;;;0.50;0.50;;;;;;;2.15;97.45;98864.53;5065009;28;20032;-68
2022/02/25 05:49:55;;;;;;;0.40;0.40;;;;;;;2.16;97.37;98873.91;5064636;28;20025;-70
2022/02/25 05:52:20;;;;;;;0.40;0.40;;;;;;;2.08;97.28;98867.94;5063809;28;20417;-70
2022/02/25 05:54:46;;;;;;;0.40;0.40;;;;;;;2.07;97.13;98874.78;5064684;28;20029;-71
2022/02/25 05:57:12;;;;;;;0.40;0.40;;;;;;;2.09;97.26;98880.72;5064715;28;20017;-70
2022/02/25 05:59:38;;;;;;;0.50;0.50;;;;;;;2.06;97.59;98874.78;5046380;28;20051;-68
2022/02/25 06:02:03;;;;;;;0.40;0.40;;;;;;;2.05;97.27;98881.59;5064600;28;20056;-68
2022/02/25 06:04:29;;;;;;;0.40;0.40;;;;;;;2.11;97.04;98888.41;5064386;28;20461;-67
2022/02/25 06:06:54;;;;;;;0.40;0.40;;;;;;;2.10;97.19;98895.25;5064328;28;20040;-69
2022/02/25 06:09:19;;;;;;;0.40;0.40;;;;;;;2.06;97.15;98890.13;5046461;28;20017;-69
2022/02/25 06:11:44;;;;;;;0.40;0.40;;;;;;;2.07;97.15;98891.81;5064617;28;20021;-68
2022/02/25 06:14:10;;;;;;;0.40;0.40;;;;;;;2.10;97.10;98912.31;5046428;28;20016;-69
2022/02/25 06:16:35;;;;;;;0.50;0.50;;;;;;;2.09;97.13;98906.34;5064358;28;20035;-68
2022/02/25 06:19:01;;;;;;;0.38;0.38;;;;;;;2.09;97.18;98908.88;5063625;28;20025;-69
2022/02/25 06:21:27;;;;;;;0.30;0.30;;;;;;;2.05;97.22;98901.19;5064226;28;20021;-66
2022/02/25 06:23:52;;;;;;;0.40;0.40;;;;;;;2.01;97.28;98897.81;5064172;28;20378;-68
2022/02/25 06:26:17;;;;;;;0.40;0.40;;;;;;;2.00;97.42;98885.84;5046288;28;20108;-68
2022/02/25 06:28:43;;;;;;;0.40;0.40;;;;;;;2.21;97.37;98913.19;5063997;28;20052;-68
2022/02/25 06:31:09;;;;;;;0.40;0.40;;;;;;;2.21;97.35;98907.22;5063870;28;20070;-68
2022/02/25 06:33:35;;;;;;;0.47;0.47;;;;;;;2.19;97.33;98912.34;5063601;28;20100;-67
2022/02/25 06:36:01;;;;;;;0.40;0.40;;;;;;;2.19;97.40;98922.56;5063017;28;20048;-67
2022/02/25 06:38:26;;;;;;;0.40;0.40;;;;;;;2.18;97.31;98909.75;5063937;28;20029;-67
2022/02/25 06:40:52;;;;;;;0.40;0.40;;;;;;;2.22;97.30;98919.19;5046065;28;20028;-68
2022/02/25 06:43:18;;;;;;;0.40;0.40;;;;;;;2.23;97.22;98905.50;5063854;28;20044;-68
2022/02/25 06:45:43;;;;;;;0.30;0.30;;;;;;;2.22;97.26;98916.63;5063843;28;20392;-69
2022/02/25 06:48:08;;;;;;;0.40;0.40;;;;;;;2.26;97.28;98915.75;5064127;28;20024;-70
2022/02/25 06:50:34;;;;;;;0.30;0.30;;;;;;;2.32;97.35;98920.03;5063416;28;20028;-69
2022/02/25 06:52:59;;;;;;;0.40;0.40;;;;;;;2.30;97.27;98916.63;5064054;28;20037;-70
2022/02/25 06:55:24;;;;;;;0.40;0.40;;;;;;;2.34;97.46;98916.63;5063715;28;20589;-69
2022/02/25 06:57:50;;;;;;;0.40;0.40;;;;;;;2.39;97.27;98929.44;5063580;28;20025;-69
2022/02/25 07:00:21;;;;;;;0.30;0.30;;;;;;;2.43;97.21;98933.69;5063588;28;20032;-68
2022/02/25 07:02:48;;;;;;;0.40;0.40;;;;;;;2.46;97.46;98936.25;5063689;28;20032;-68
2022/02/25 07:05:13;;;;;;;0.50;0.50;;;;;;;2.50;97.31;98946.50;5062920;28;20036;-68
2022/02/25 07:07:38;;;;;;;0.40;0.40;;;;;;;2.53;97.42;98941.41;5063567;28;20024;-67
2022/02/25 07:10:06;;;;;;;0.40;0.40;;;;;;;2.62;97.43;98950.81;5063581;28;20052;-69
2022/02/25 07:12:32;;;;;;;0.30;0.30;;;;;;;2.66;97.56;98942.25;5063719;28;20039;-68
2022/02/25 07:14:57;;;;;;;0.50;0.50;;;;;;;2.70;97.37;98949.09;5063620;28;20025;-68
2022/02/25 07:17:23;;;;;;;0.40;0.40;;;;;;;2.72;97.68;98953.38;5063558;28;20021;-68
2022/02/25 07:19:48;;;;;;;0.40;0.40;;;;;;;2.75;97.31;98946.53;5063183;28;20021;-68
2022/02/25 07:22:13;;;;;;;0.38;0.38;;;;;;;2.77;97.42;98960.19;5063301;28;20037;-68
2022/02/25 07:24:40;;;;;;;0.40;0.40;;;;;;;2.83;97.34;98973.00;5062997;28;20021;-68
2022/02/25 07:27:07;;;;;;;0.40;0.40;;;;;;;2.79;97.17;98972.19;5062803;28;20028;-67
2022/02/25 07:29:32;;;;;;;0.40;0.40;;;;;;;2.87;97.27;98981.56;5062592;28;20021;-67
2022/02/25 07:31:58;;;;;;;0.40;0.40;;;;;;;2.88;97.34;98979.00;5062769;28;20021;-67
2022/02/25 07:34:23;;;;;;;0.40;0.40;;;;;;;2.90;97.17;98990.13;5061852;28;20035;-68
2022/02/25 07:36:48;;;;;;;0.50;0.50;;;;;;;2.86;97.00;98985.81;5062316;28;20037;-68
2022/02/25 07:39:14;;;;;;;0.43;0.43;;;;;;;2.91;97.03;98984.13;5062435;28;20029;-68
2022/02/25 07:41:39;;;;;;;0.50;0.50;;;;;;;2.95;97.10;98992.69;5062496;28;20116;-68
2022/02/25 07:44:05;;;;;;;0.35;0.35;;;;;;;3.01;97.24;99000.38;5062310;28;20047;-69
2022/02/25 07:46:30;;;;;;;0.40;0.40;;;;;;;3.04;97.07;98994.38;5062496;28;20017;-67
2022/02/25 07:48:56;;;;;;;0.32;0.32;;;;;;;3.11;97.07;99011.47;5062217;28;20040;-68
2022/02/25 07:51:21;;;;;;;0.40;0.40;;;;;;;3.12;97.31;99005.47;5062655;28;20021;-67
2022/02/25 07:53:48;;;;;;;0.40;0.40;;;;;;;3.19;97.17;99012.34;5062358;28;20110;-68
2022/02/25 07:56:14;;;;;;;0.40;0.40;;;;;;;3.27;97.11;99020.03;5062415;28;20021;-68
2022/02/25 07:58:40;;;;;;;0.40;0.40;;;;;;;3.30;96.54;99026.84;5062514;28;20055;-67
2022/02/25 08:01:06;;;;;;;1.02;1.02;;;;;;;3.29;96.40;99022.59;5062438;28;20047;-68
2022/02/25 08:03:31;;;;;;;0.40;0.40;;;;;;;3.36;96.07;99031.97;5062345;28;20033;-68
2022/02/25 08:05:57;;;;;;;0.40;0.40;;;;;;;3.48;95.99;99036.25;5061995;28;20025;-67
2022/02/25 08:08:22;;;;;;;0.50;0.50;;;;;;;3.57;96.16;99040.50;5044220;28;20092;-68
2022/02/25 08:10:48;;;;;;;0.40;0.40;;;;;;;3.85;96.31;99045.56;5062448;28;20028;-69
2022/02/25 08:13:13;;;;;;;0.30;0.30;;;;;;;4.14;96.81;99049.75;5062537;28;20021;-69
2022/02/25 08:15:38;;;;;;;0.32;0.32;;;;;;;4.36;96.20;99057.34;5062772;28;20017;-69
2022/02/25 08:18:06;;;;;;;0.40;0.40;;;;;;;4.36;94.58;99056.50;5066400;28;20045;-69
2022/02/25 08:20:33;;;;;;;0.30;0.30;;;;;;;4.28;93.19;99059.13;5065786;28;20032;-69
2022/02/25 08:23:01;;;;;;;0.40;0.40;;;;;;;4.13;92.13;99065.16;5066323;28;20021;-69
2022/02/25 08:25:27;;;;;;;3.15;1.85;;;;;;;4.05;92.15;99067.75;5066145;28;20052;-69
2022/02/25 08:27:52;;;;;;;0.32;0.32;;;;;;;4.08;92.07;99078.88;5048190;28;20013;-69
2022/02/25 08:30:18;;;;;;;0.40;0.40;;;;;;;4.04;92.24;99081.47;5048016;28;20025;-69
2022/02/25 08:32:46;;;;;;;0.40;0.40;;;;;;;3.98;91.40;99087.47;5065983;28;20111;-68
2022/02/25 08:35:12;;;;;;;4.88;3.17;;;;;;;3.93;91.66;99087.47;5065361;28;20021;-70
2022/02/25 08:37:38;;;;;;;0.40;0.40;;;;;;;3.95;91.18;99101.16;5047831;28;20027;-68
2022/02/25 08:40:05;;;;;;;0.70;0.70;;;;;;;3.88;90.75;99096.94;5066437;28;20044;-68
2022/02/25 08:42:31;;;;;;;0.40;0.40;;;;;;;3.89;91.03;99088.34;5066006;28;20086;-69
2022/02/25 08:44:56;;;;;;;0.40;0.40;;;;;;;3.84;90.43;99090.06;5065829;28;20020;-70
2022/02/25 08:47:22;;;;;;;0.40;0.40;;;;;;;3.89;90.90;99098.63;5065701;28;20017;-69
2022/02/25 08:49:47;;;;;;;0.40;0.40;;;;;;;3.87;90.84;99100.31;5065361;28;20048;-68
2022/02/25 08:52:13;;;;;;;0.50;0.50;;;;;;;3.84;90.11;99111.47;5065651;28;20102;-70
2022/02/25 08:54:38;;;;;;;0.40;0.40;;;;;;;3.88;90.71;99107.19;5065543;28;20028;-69
2022/02/25 08:57:04;;;;;;;0.40;0.40;;;;;;;3.95;90.43;99111.44;5065587;28;20504;-68
2022/02/25 08:59:30;;;;;;;0.50;0.50;;;;;;;4.07;90.51;99119.97;5047184;28;20021;-68
2022/02/25 09:01:55;;;;;;;0.40;0.40;;;;;;;4.16;90.65;99126.78;5065318;28;20029;-69
2022/02/25 09:04:21;;;;;;;0.40;0.40;;;;;;;4.13;89.63;99130.25;5064935;28;20082;-69
2022/02/25 09:06:46;;;;;;;0.40;0.40;;;;;;;4.10;89.26;99132.81;5065336;28;20036;-69
2022/02/25 09:09:14;;;;;;;0.40;0.40;;;;;;;4.08;89.13;99144.81;5065206;28;20063;-67
2022/02/25 09:11:39;;;;;;;0.40;0.40;;;;;;;4.17;89.98;99156.78;5065102;28;20020;-67
2022/02/25 09:14:05;;;;;;;0.40;0.40;;;;;;;4.15;88.83;99156.78;5065060;28;20021;-68
2022/02/25 09:16:30;;;;;;;0.40;0.40;;;;;;;4.18;88.90;99161.91;5065529;28;20017;-68
2022/02/25 09:18:55;;;;;;;0.40;0.40;;;;;;;4.30;89.07;99167.84;5064787;28;20049;-69
2022/02/25 09:21:21;;;;;;;0.50;0.50;;;;;;;4.22;87.49;99179.03;5065002;28;20080;-69
2022/02/25 09:23:47;;;;;;;0.40;0.40;;;;;;;4.19;87.42;99168.75;5064987;28;20334;-69
2022/02/25 09:26:12;;;;;;;0.40;0.40;;;;;;;4.15;87.17;99181.63;5065079;28;20082;-69
2022/02/25 09:28:38;;;;;;;0.30;0.30;;;;;;;4.13;87.63;99178.19;5064868;28;20025;-69
2022/02/25 09:31:03;;;;;;;3.05;2.78;;;;;;;4.10;87.83;99171.34;5065078;28;20059;-69
2022/02/25 09:33:29;;;;;;;0.40;0.40;;;;;;;4.03;87.84;99185.03;5064888;28;20028;-67
2022/02/25 09:35:54;;;;;;;0.50;0.50;;;;;;;3.97;87.45;99183.34;5064124;28;20048;-68
2022/02/25 09:38:19;;;;;;;0.47;0.47;;;;;;;4.00;87.66;99187.59;5064560;28;20427;-69
2022/02/25 09:40:45;;;;;;;0.40;0.40;;;;;;;4.07;87.89;99189.34;5064691;28;20021;-69
2022/02/25 09:43:10;;;;;;;0.40;0.40;;;;;;;4.14;87.96;99187.63;5064495;28;20108;-68
2022/02/25 09:45:36;;;;;;;0.40;0.40;;;;;;;4.22;88.35;99196.13;5064273;28;20128;-68
2022/02/25 09:48:01;;;;;;;1.48;1.48;;;;;;;4.30;88.63;99190.97;5064597;28;20079;-69
2022/02/25 09:50:27;;;;;;;0.40;0.40;;;;;;;4.33;88.21;99206.38;5064043;28;20040;-68
2022/02/25 09:52:52;;;;;;;0.40;0.40;;;;;;;4.40;88.46;99217.50;5064567;28;20021;-68
2022/02/25 09:55:20;;;;;;;0.60;0.60;;;;;;;4.38;88.62;99211.56;5064241;28;20025;-68
2022/02/25 09:57:45;;;;;;;0.38;0.38;;;;;;;4.29;87.58;99218.41;5064317;28;20047;-68
2022/02/25 10:00:11;;;;;;;0.40;0.40;;;;;;;4.27;87.50;99230.41;5064252;28;20025;-68
2022/02/25 10:02:42;;;;;;;0.40;0.40;;;;;;;4.28;88.12;99223.56;5064275;28;20056;-68
2022/02/25 10:05:13;;;;;;;0.30;0.30;;;;;;;4.27;87.87;99229.53;5063624;28;20036;-68
2022/02/25 10:07:39;;;;;;;0.40;0.40;;;;;;;4.25;87.72;99223.56;5064020;28;20029;-69
2022/02/25 10:10:06;;;;;;;0.40;0.40;;;;;;;4.22;88.06;99224.41;5063867;28;20103;-69
2022/02/25 10:12:32;;;;;;;0.40;0.40;;;;;;;4.22;87.99;99232.97;5064114;28;20112;-69
2022/02/25 10:14:57;;;;;;;0.40;0.40;;;;;;;4.31;87.58;99244.09;5061664;28;20020;-68
2022/02/25 10:17:27;;;;;;;2.95;2.80;;;;;;;4.35;87.97;99253.50;5064160;28;20036;-67
2022/02/25 10:19:58;;;;;;;0.40;0.40;;;;;;;4.83;89.91;99253.41;5063312;28;20033;-69
2022/02/25 10:22:26;;;;;;;0.30;0.30;;;;;;;5.39;89.44;99244.56;5063825;28;20355;-70
2022/02/25 10:24:55;;;;;;;0.40;0.40;;;;;;;5.36;85.82;99257.44;5063597;28;20050;-69
2022/02/25 10:27:26;;;;;;;0.40;0.40;;;;;;;5.39;85.43;99264.28;5063687;28;20039;-69
2022/02/25 10:29:56;;;;;;;0.40;0.40;;;;;;;5.36;85.68;99269.44;5063634;28;20067;-69
2022/02/25 10:32:29;;;;;;;0.40;0.40;;;;;;;5.25;84.60;99260.09;5063623;28;20250;-70
2022/02/25 10:34:55;;;;;;;0.40;0.40;;;;;;;5.37;84.93;99266.88;5045109;28;20026;-70
2022/02/25 10:37:20;;;;;;;0.40;0.40;;;;;;;5.32;85.08;99274.63;5063307;28;20064;-69
2022/02/25 10:39:47;;;;;;;0.40;0.40;;;;;;;5.48;85.67;99278.84;5062671;28;20017;-69
2022/02/25 10:42:19;;;;;;;0.40;0.40;;;;;;;5.69;86.20;99276.13;5063192;28;20369;-68
2022/02/25 10:44:51;;;;;;;0.30;0.30;;;;;;;5.88;84.79;99276.00;5045251;28;20021;-69
2022/02/25 10:47:25;;;;;;;9.80;2.50;;;;;;;5.84;83.75;99274.31;5063388;28;20025;-69
2022/02/25 10:50:09;;;;;;;10.35;2.15;;;;;;;5.91;83.57;99286.25;5063030;28;20028;-69
2022/02/25 10:52:40;;;;;;;18.17;2.78;;;;;;;6.00;84.74;99303.41;5063388;28;20028;-68
2022/02/25 10:55:11;;;;;;;9.95;2.90;;;;;;;6.11;83.91;99290.47;5063107;28;20029;-68
2022/02/25 10:57:37;;;;;;;20.58;3.85;;;;;;;6.68;83.22;99306.25;5045388;28;20043;-69
2022/02/25 11:00:08;;;;;;;8.75;2.22;;;;;;;7.14;81.57;99306.66;5063241;28;20036;-69
2022/02/25 11:02:43;;;;;;;20.40;2.65;;;;;;;7.46;80.48;99307.09;5063009;28;20461;-69
2022/02/25 11:05:10;;;;;;;9.82;2.17;;;;;;;7.75;80.33;99318.75;5062675;28;20056;-69
2022/02/25 11:07:38;;;;;;;12.95;2.22;;;;;;;8.14;78.46;99318.16;5063060;28;20025;-69
2022/02/25 11:10:05;;;;;;;13.68;2.33;;;;;;;8.03;77.76;99311.47;5062972;28;20060;-70
2022/02/25 11:12:31;;;;;;;14.20;3.90;;;;;;;8.30;78.88;99327.41;5063082;28;20060;-70
2022/02/25 11:14:57;;;;;;;9.98;2.10;;;;;;;8.16;78.10;99334.53;5062847;28;20025;-69
2022/02/25 11:17:24;;;;;;;18.60;2.60;;;;;;;7.65;75.92;99333.53;5045049;28;20028;-69
2022/02/25 11:19:54;;;;;;;10.50;3.53;;;;;;;7.93;77.72;99344.34;5062636;28;20028;-69
2022/02/25 11:22:22;;;;;;;12.50;2.30;;;;;;;8.74;75.60;99351.72;5062703;28;20143;-70
2022/02/25 11:24:48;;;;;;;14.73;2.30;;;;;;;8.60;74.45;99351.94;5062594;28;20025;-70
2022/02/25 11:27:14;;;;;;;15.18;3.30;;;;;;;8.34;74.49;99355.78;5062688;28;20025;-69
2022/02/25 11:29:53;;;;;;;16.33;2.67;;;;;;;8.41;74.65;99359.97;5062537;28;20035;-69
2022/02/25 11:32:24;;;;;;;19.73;3.53;;;;;;;9.14;72.40;99356.13;5062853;28;20108;-68
2022/02/25 11:34:49;;;;;;;10.38;2.97;;;;;;;9.63;71.79;99357.75;5062223;28;20051;-70
2022/02/25 11:37:42;;;;;;;9.82;2.08;;;;;;;10.10;70.30;99360.16;5062393;28;20045;-69
2022/02/25 11:40:08;;;;;;;14.43;2.38;;;;;;;10.86;69.30;99354.03;5062641;28;20068;-68
2022/02/25 11:42:33;;;;;;;19.27;2.50;;;;;;;10.96;68.31;99368.44;5062723;28;20025;-68